sensor_id;sensor_type;location;lat;lon;timestamp;P1;durP1;ratioP1;P2;durP2;ratioP2
6344;SDS011;3205;42.666;23.264;2023-04-03T00:00:24;9.77;;;4.50;;
6344;SDS011;3205;42.666;23.264;2023-04-03T00:02:50;6.73;;;3.53;;
6344;SDS011;3205;42.666;23.264;2023-04-03T00:05:16;6.50;;;3.93;;
6344;SDS011;3205;42.666;23.264;2023-04-03T00:07:43;5.23;;;3.80;;
6344;SDS011;3205;42.666;23.264;2023-04-03T00:10:09;6.23;;;3.77;;
6344;SDS011;3205;42.666;23.264;2023-04-03T00:12:35;7.43;;;3.47;;
6344;SDS011;3205;42.666;23.264;2023-04-03T00:15:02;4.23;;;3.50;;
6344;SDS011;3205;42.666;23.264;2023-04-03T00:17:28;8.50;;;3.57;;
6344;SDS011;3205;42.666;23.264;2023-04-03T00:19:55;6.00;;;3.53;;
6344;SDS011;3205;42.666;23.264;2023-04-03T00:22:21;5.40;;;2.90;;
6344;SDS011;3205;42.666;23.264;2023-04-03T00:24:47;12.50;;;4.80;;
6344;SDS011;3205;42.666;23.264;2023-04-03T00:27:13;5.47;;;3.60;;
6344;SDS011;3205;42.666;23.264;2023-04-03T00:29:40;4.50;;;2.90;;
6344;SDS011;3205;42.666;23.264;2023-04-03T00:32:07;4.20;;;3.07;;
6344;SDS011;3205;42.666;23.264;2023-04-03T00:34:33;5.00;;;3.10;;
6344;SDS011;3205;42.666;23.264;2023-04-03T00:36:59;5.37;;;3.20;;
6344;SDS011;3205;42.666;23.264;2023-04-03T00:39:26;6.70;;;2.93;;
6344;SDS011;3205;42.666;23.264;2023-04-03T00:41:52;5.73;;;3.57;;
6344;SDS011;3205;42.666;23.264;2023-04-03T00:44:22;4.00;;;2.60;;
6344;SDS011;3205;42.666;23.264;2023-04-03T00:47:11;5.23;;;2.67;;
6344;SDS011;3205;42.666;23.264;2023-04-03T00:49:39;11.50;;;3.97;;
6344;SDS011;3205;42.666;23.264;2023-04-03T00:52:05;3.90;;;2.97;;
6344;SDS011;3205;42.666;23.264;2023-04-03T00:54:34;6.70;;;4.03;;
6344;SDS011;3205;42.666;23.264;2023-04-03T00:57:02;8.77;;;2.90;;
6344;SDS011;3205;42.666;23.264;2023-04-03T00:59:31;8.60;;;2.80;;
6344;SDS011;3205;42.666;23.264;2023-04-03T01:02:01;4.67;;;2.40;;
6344;SDS011;3205;42.666;23.264;2023-04-03T01:04:28;4.20;;;2.50;;
6344;SDS011;3205;42.666;23.264;2023-04-03T01:06:56;6.53;;;3.13;;
6344;SDS011;3205;42.666;23.264;2023-04-03T01:09:26;4.70;;;2.87;;
6344;SDS011;3205;42.666;23.264;2023-04-03T01:11:54;3.90;;;2.70;;
6344;SDS011;3205;42.666;23.264;2023-04-03T01:14:23;3.53;;;2.60;;
6344;SDS011;3205;42.666;23.264;2023-04-03T01:16:52;4.10;;;2.83;;
6344;SDS011;3205;42.666;23.264;2023-04-03T01:19:18;13.10;;;3.63;;
6344;SDS011;3205;42.666;23.264;2023-04-03T01:22:01;8.27;;;3.93;;
6344;SDS011;3205;42.666;23.264;2023-04-03T01:24:36;6.03;;;3.13;;
6344;SDS011;3205;42.666;23.264;2023-04-03T01:27:05;4.03;;;3.00;;
6344;SDS011;3205;42.666;23.264;2023-04-03T01:29:33;7.33;;;3.07;;
6344;SDS011;3205;42.666;23.264;2023-04-03T01:32:00;4.63;;;2.60;;
6344;SDS011;3205;42.666;23.264;2023-04-03T01:34:28;6.40;;;3.20;;
6344;SDS011;3205;42.666;23.264;2023-04-03T01:36:54;4.83;;;2.80;;
6344;SDS011;3205;42.666;23.264;2023-04-03T01:39:21;4.83;;;2.80;;
6344;SDS011;3205;42.666;23.264;2023-04-03T01:41:47;5.30;;;2.87;;
6344;SDS011;3205;42.666;23.264;2023-04-03T01:44:14;6.43;;;2.90;;
6344;SDS011;3205;42.666;23.264;2023-04-03T01:46:40;6.00;;;2.70;;
6344;SDS011;3205;42.666;23.264;2023-04-03T01:49:08;6.20;;;2.73;;
6344;SDS011;3205;42.666;23.264;2023-04-03T01:51:34;6.50;;;2.57;;
6344;SDS011;3205;42.666;23.264;2023-04-03T01:54:00;6.20;;;2.60;;
6344;SDS011;3205;42.666;23.264;2023-04-03T01:56:26;4.23;;;2.70;;
6344;SDS011;3205;42.666;23.264;2023-04-03T01:58:52;3.97;;;2.80;;
6344;SDS011;3205;42.666;23.264;2023-04-03T02:01:18;3.50;;;2.60;;
6344;SDS011;3205;42.666;23.264;2023-04-03T02:03:45;5.57;;;2.73;;
6344;SDS011;3205;42.666;23.264;2023-04-03T02:06:11;5.13;;;3.10;;
6344;SDS011;3205;42.666;23.264;2023-04-03T02:08:37;5.33;;;2.70;;
6344;SDS011;3205;42.666;23.264;2023-04-03T02:11:03;3.77;;;2.40;;
6344;SDS011;3205;42.666;23.264;2023-04-03T02:13:30;5.17;;;2.77;;
6344;SDS011;3205;42.666;23.264;2023-04-03T02:15:56;5.03;;;3.30;;
6344;SDS011;3205;42.666;23.264;2023-04-03T02:18:22;5.93;;;3.47;;
6344;SDS011;3205;42.666;23.264;2023-04-03T02:20:48;13.13;;;2.60;;
6344;SDS011;3205;42.666;23.264;2023-04-03T02:23:15;4.27;;;2.80;;
6344;SDS011;3205;42.666;23.264;2023-04-03T02:25:41;7.03;;;2.40;;
6344;SDS011;3205;42.666;23.264;2023-04-03T02:28:07;9.03;;;2.63;;
6344;SDS011;3205;42.666;23.264;2023-04-03T02:30:33;5.93;;;2.60;;
6344;SDS011;3205;42.666;23.264;2023-04-03T02:32:59;7.67;;;2.57;;
6344;SDS011;3205;42.666;23.264;2023-04-03T02:35:25;6.63;;;2.57;;
6344;SDS011;3205;42.666;23.264;2023-04-03T02:37:51;6.77;;;2.53;;
6344;SDS011;3205;42.666;23.264;2023-04-03T02:40:18;7.60;;;2.80;;
6344;SDS011;3205;42.666;23.264;2023-04-03T02:42:44;5.77;;;2.57;;
6344;SDS011;3205;42.666;23.264;2023-04-03T02:45:11;6.50;;;2.87;;
6344;SDS011;3205;42.666;23.264;2023-04-03T02:47:37;6.87;;;3.23;;
6344;SDS011;3205;42.666;23.264;2023-04-03T02:50:03;9.37;;;3.33;;
6344;SDS011;3205;42.666;23.264;2023-04-03T02:52:31;11.60;;;3.80;;
6344;SDS011;3205;42.666;23.264;2023-04-03T02:54:57;10.90;;;3.53;;
6344;SDS011;3205;42.666;23.264;2023-04-03T02:57:24;5.50;;;3.80;;
6344;SDS011;3205;42.666;23.264;2023-04-03T02:59:50;7.90;;;4.53;;
6344;SDS011;3205;42.666;23.264;2023-04-03T03:02:16;12.83;;;3.87;;
6344;SDS011;3205;42.666;23.264;2023-04-03T03:04:42;12.23;;;4.73;;
6344;SDS011;3205;42.666;23.264;2023-04-03T03:07:08;14.07;;;4.40;;
6344;SDS011;3205;42.666;23.264;2023-04-03T03:09:35;9.93;;;4.47;;
6344;SDS011;3205;42.666;23.264;2023-04-03T03:12:01;7.33;;;4.17;;
6344;SDS011;3205;42.666;23.264;2023-04-03T03:14:29;15.50;;;5.90;;
6344;SDS011;3205;42.666;23.264;2023-04-03T03:16:55;8.37;;;4.60;;
6344;SDS011;3205;42.666;23.264;2023-04-03T03:19:21;13.37;;;5.10;;
6344;SDS011;3205;42.666;23.264;2023-04-03T03:21:47;15.57;;;4.67;;
6344;SDS011;3205;42.666;23.264;2023-04-03T03:24:13;12.53;;;4.67;;
6344;SDS011;3205;42.666;23.264;2023-04-03T03:26:40;12.20;;;5.83;;
6344;SDS011;3205;42.666;23.264;2023-04-03T03:29:07;9.23;;;4.37;;
6344;SDS011;3205;42.666;23.264;2023-04-03T03:31:33;14.10;;;4.47;;
6344;SDS011;3205;42.666;23.264;2023-04-03T03:33:59;24.37;;;4.90;;
6344;SDS011;3205;42.666;23.264;2023-04-03T03:36:26;13.87;;;5.30;;
6344;SDS011;3205;42.666;23.264;2023-04-03T03:38:52;13.40;;;5.20;;
6344;SDS011;3205;42.666;23.264;2023-04-03T03:41:18;17.80;;;5.60;;
6344;SDS011;3205;42.666;23.264;2023-04-03T03:43:44;14.77;;;6.23;;
6344;SDS011;3205;42.666;23.264;2023-04-03T03:46:10;16.77;;;6.63;;
6344;SDS011;3205;42.666;23.264;2023-04-03T03:48:37;18.73;;;5.97;;
6344;SDS011;3205;42.666;23.264;2023-04-03T03:51:04;12.77;;;6.00;;
6344;SDS011;3205;42.666;23.264;2023-04-03T03:53:30;18.13;;;6.17;;
6344;SDS011;3205;42.666;23.264;2023-04-03T03:55:56;14.63;;;5.83;;
6344;SDS011;3205;42.666;23.264;2023-04-03T03:58:23;17.73;;;6.43;;
6344;SDS011;3205;42.666;23.264;2023-04-03T04:00:49;14.03;;;5.97;;
6344;SDS011;3205;42.666;23.264;2023-04-03T04:03:15;18.87;;;5.93;;
6344;SDS011;3205;42.666;23.264;2023-04-03T04:05:42;12.23;;;5.17;;
6344;SDS011;3205;42.666;23.264;2023-04-03T04:08:08;12.13;;;6.10;;
6344;SDS011;3205;42.666;23.264;2023-04-03T04:10:35;13.17;;;6.87;;
6344;SDS011;3205;42.666;23.264;2023-04-03T04:13:02;13.20;;;6.87;;
6344;SDS011;3205;42.666;23.264;2023-04-03T04:15:29;11.47;;;5.63;;
6344;SDS011;3205;42.666;23.264;2023-04-03T04:17:57;18.63;;;8.27;;
6344;SDS011;3205;42.666;23.264;2023-04-03T04:20:23;28.67;;;8.97;;
6344;SDS011;3205;42.666;23.264;2023-04-03T04:22:50;18.90;;;8.47;;
6344;SDS011;3205;42.666;23.264;2023-04-03T04:25:16;20.63;;;8.13;;
6344;SDS011;3205;42.666;23.264;2023-04-03T04:27:42;14.27;;;7.37;;
6344;SDS011;3205;42.666;23.264;2023-04-03T04:30:08;19.20;;;7.50;;
6344;SDS011;3205;42.666;23.264;2023-04-03T04:32:36;10.33;;;6.10;;
6344;SDS011;3205;42.666;23.264;2023-04-03T04:35:02;12.93;;;6.07;;
6344;SDS011;3205;42.666;23.264;2023-04-03T04:37:29;22.47;;;6.40;;
6344;SDS011;3205;42.666;23.264;2023-04-03T04:39:56;24.13;;;8.00;;
6344;SDS011;3205;42.666;23.264;2023-04-03T04:42:22;14.73;;;7.27;;
6344;SDS011;3205;42.666;23.264;2023-04-03T04:44:48;12.67;;;7.03;;
6344;SDS011;3205;42.666;23.264;2023-04-03T04:47:15;15.30;;;7.03;;
6344;SDS011;3205;42.666;23.264;2023-04-03T04:49:41;20.47;;;6.90;;
6344;SDS011;3205;42.666;23.264;2023-04-03T04:52:07;31.50;;;8.85;;
6344;SDS011;3205;42.666;23.264;2023-04-03T04:54:33;16.53;;;7.17;;
6344;SDS011;3205;42.666;23.264;2023-04-03T04:57:00;18.97;;;6.90;;
6344;SDS011;3205;42.666;23.264;2023-04-03T04:59:26;14.47;;;7.30;;
6344;SDS011;3205;42.666;23.264;2023-04-03T05:01:52;17.23;;;7.57;;
6344;SDS011;3205;42.666;23.264;2023-04-03T05:04:18;32.57;;;14.00;;
6344;SDS011;3205;42.666;23.264;2023-04-03T05:06:45;17.97;;;8.97;;
6344;SDS011;3205;42.666;23.264;2023-04-03T05:09:11;22.67;;;10.13;;
6344;SDS011;3205;42.666;23.264;2023-04-03T05:11:37;18.20;;;9.97;;
6344;SDS011;3205;42.666;23.264;2023-04-03T05:14:04;27.53;;;11.67;;
6344;SDS011;3205;42.666;23.264;2023-04-03T05:16:31;22.70;;;11.27;;
6344;SDS011;3205;42.666;23.264;2023-04-03T05:18:58;27.80;;;11.10;;
6344;SDS011;3205;42.666;23.264;2023-04-03T05:21:24;26.50;;;10.47;;
6344;SDS011;3205;42.666;23.264;2023-04-03T05:23:51;33.73;;;10.47;;
6344;SDS011;3205;42.666;23.264;2023-04-03T05:26:17;22.63;;;10.63;;
6344;SDS011;3205;42.666;23.264;2023-04-03T05:28:43;25.33;;;10.33;;
6344;SDS011;3205;42.666;23.264;2023-04-03T05:31:10;22.23;;;9.97;;
6344;SDS011;3205;42.666;23.264;2023-04-03T05:33:36;21.47;;;9.20;;
6344;SDS011;3205;42.666;23.264;2023-04-03T05:36:03;22.93;;;9.97;;
6344;SDS011;3205;42.666;23.264;2023-04-03T05:38:29;28.23;;;11.03;;
6344;SDS011;3205;42.666;23.264;2023-04-03T05:40:56;22.67;;;9.83;;
6344;SDS011;3205;42.666;23.264;2023-04-03T05:43:22;20.90;;;9.77;;
6344;SDS011;3205;42.666;23.264;2023-04-03T05:45:50;22.53;;;10.90;;
6344;SDS011;3205;42.666;23.264;2023-04-03T05:48:17;29.43;;;11.77;;
6344;SDS011;3205;42.666;23.264;2023-04-03T05:50:43;24.97;;;11.17;;
6344;SDS011;3205;42.666;23.264;2023-04-03T05:53:10;25.50;;;10.50;;
6344;SDS011;3205;42.666;23.264;2023-04-03T05:55:42;23.23;;;9.83;;
6344;SDS011;3205;42.666;23.264;2023-04-03T05:58:09;28.97;;;10.03;;
6344;SDS011;3205;42.666;23.264;2023-04-03T06:00:35;23.77;;;10.33;;
6344;SDS011;3205;42.666;23.264;2023-04-03T06:03:01;29.40;;;10.87;;
6344;SDS011;3205;42.666;23.264;2023-04-03T06:05:28;24.40;;;10.50;;
6344;SDS011;3205;42.666;23.264;2023-04-03T06:07:54;29.67;;;11.80;;
6344;SDS011;3205;42.666;23.264;2023-04-03T06:10:20;23.80;;;11.37;;
6344;SDS011;3205;42.666;23.264;2023-04-03T06:12:47;17.23;;;8.67;;
6344;SDS011;3205;42.666;23.264;2023-04-03T06:15:14;26.90;;;8.97;;
6344;SDS011;3205;42.666;23.264;2023-04-03T06:17:42;18.70;;;9.17;;
6344;SDS011;3205;42.666;23.264;2023-04-03T06:20:09;18.30;;;6.53;;
6344;SDS011;3205;42.666;23.264;2023-04-03T06:22:36;10.33;;;5.37;;
6344;SDS011;3205;42.666;23.264;2023-04-03T06:25:03;11.90;;;5.57;;
6344;SDS011;3205;42.666;23.264;2023-04-03T06:27:31;11.07;;;5.63;;
6344;SDS011;3205;42.666;23.264;2023-04-03T06:29:57;11.73;;;5.23;;
6344;SDS011;3205;42.666;23.264;2023-04-03T06:32:23;11.37;;;5.23;;
6344;SDS011;3205;42.666;23.264;2023-04-03T06:34:50;12.20;;;5.47;;
6344;SDS011;3205;42.666;23.264;2023-04-03T06:37:18;10.30;;;5.33;;
6344;SDS011;3205;42.666;23.264;2023-04-03T06:39:47;19.43;;;5.23;;
6344;SDS011;3205;42.666;23.264;2023-04-03T06:42:13;11.70;;;6.07;;
6344;SDS011;3205;42.666;23.264;2023-04-03T06:44:39;14.67;;;5.10;;
6344;SDS011;3205;42.666;23.264;2023-04-03T06:47:05;14.90;;;5.50;;
6344;SDS011;3205;42.666;23.264;2023-04-03T06:49:31;14.07;;;5.77;;
6344;SDS011;3205;42.666;23.264;2023-04-03T06:51:58;12.60;;;5.07;;
6344;SDS011;3205;42.666;23.264;2023-04-03T06:54:24;10.67;;;5.83;;
6344;SDS011;3205;42.666;23.264;2023-04-03T06:56:50;10.40;;;5.57;;
6344;SDS011;3205;42.666;23.264;2023-04-03T06:59:17;13.10;;;5.27;;
6344;SDS011;3205;42.666;23.264;2023-04-03T07:01:43;21.73;;;5.20;;
6344;SDS011;3205;42.666;23.264;2023-04-03T07:04:09;11.77;;;5.23;;
6344;SDS011;3205;42.666;23.264;2023-04-03T07:06:35;13.20;;;5.07;;
6344;SDS011;3205;42.666;23.264;2023-04-03T07:09:01;9.57;;;4.90;;
6344;SDS011;3205;42.666;23.264;2023-04-03T07:11:28;14.67;;;4.87;;
6344;SDS011;3205;42.666;23.264;2023-04-03T07:13:55;9.87;;;5.03;;
6344;SDS011;3205;42.666;23.264;2023-04-03T07:16:21;7.27;;;4.23;;
6344;SDS011;3205;42.666;23.264;2023-04-03T07:18:48;11.50;;;4.20;;
6344;SDS011;3205;42.666;23.264;2023-04-03T07:21:14;13.10;;;4.50;;
6344;SDS011;3205;42.666;23.264;2023-04-03T07:23:40;11.97;;;4.50;;
6344;SDS011;3205;42.666;23.264;2023-04-03T07:26:06;8.03;;;4.43;;
6344;SDS011;3205;42.666;23.264;2023-04-03T07:28:34;16.20;;;4.67;;
6344;SDS011;3205;42.666;23.264;2023-04-03T07:31:03;21.30;;;5.80;;
6344;SDS011;3205;42.666;23.264;2023-04-03T07:33:31;14.17;;;6.47;;
6344;SDS011;3205;42.666;23.264;2023-04-03T07:35:57;17.23;;;7.00;;
6344;SDS011;3205;42.666;23.264;2023-04-03T07:38:24;9.83;;;5.20;;
6344;SDS011;3205;42.666;23.264;2023-04-03T07:40:51;7.93;;;4.40;;
6344;SDS011;3205;42.666;23.264;2023-04-03T07:43:18;7.60;;;4.10;;
6344;SDS011;3205;42.666;23.264;2023-04-03T07:45:45;6.50;;;3.90;;
6344;SDS011;3205;42.666;23.264;2023-04-03T07:48:15;5.10;;;3.03;;
6344;SDS011;3205;42.666;23.264;2023-04-03T07:50:42;6.63;;;3.30;;
6344;SDS011;3205;42.666;23.264;2023-04-03T07:53:09;8.63;;;3.20;;
6344;SDS011;3205;42.666;23.264;2023-04-03T07:55:35;6.83;;;3.40;;
6344;SDS011;3205;42.666;23.264;2023-04-03T07:58:07;8.48;;;3.50;;
6344;SDS011;3205;42.666;23.264;2023-04-03T08:00:34;2.90;;;2.70;;
6344;SDS011;3205;42.666;23.264;2023-04-03T08:03:00;9.03;;;3.40;;
6344;SDS011;3205;42.666;23.264;2023-04-03T08:05:27;5.33;;;2.83;;
6344;SDS011;3205;42.666;23.264;2023-04-03T08:07:54;9.13;;;2.90;;
6344;SDS011;3205;42.666;23.264;2023-04-03T08:10:20;4.40;;;2.60;;
6344;SDS011;3205;42.666;23.264;2023-04-03T08:12:46;10.83;;;2.90;;
6344;SDS011;3205;42.666;23.264;2023-04-03T08:15:12;6.80;;;3.40;;
6344;SDS011;3205;42.666;23.264;2023-04-03T08:17:39;12.10;;;3.20;;
6344;SDS011;3205;42.666;23.264;2023-04-03T08:20:05;7.93;;;3.90;;
6344;SDS011;3205;42.666;23.264;2023-04-03T08:22:34;8.53;;;3.50;;
6344;SDS011;3205;42.666;23.264;2023-04-03T08:25:00;6.87;;;4.10;;
6344;SDS011;3205;42.666;23.264;2023-04-03T08:27:26;13.90;;;5.77;;
6344;SDS011;3205;42.666;23.264;2023-04-03T08:29:53;6.13;;;4.30;;
6344;SDS011;3205;42.666;23.264;2023-04-03T08:32:19;8.10;;;4.60;;
6344;SDS011;3205;42.666;23.264;2023-04-03T08:34:46;11.33;;;4.43;;
6344;SDS011;3205;42.666;23.264;2023-04-03T08:37:12;7.33;;;4.73;;
6344;SDS011;3205;42.666;23.264;2023-04-03T08:39:39;12.33;;;5.53;;
6344;SDS011;3205;42.666;23.264;2023-04-03T08:42:05;16.43;;;5.70;;
6344;SDS011;3205;42.666;23.264;2023-04-03T08:44:44;14.00;;;5.47;;
6344;SDS011;3205;42.666;23.264;2023-04-03T08:47:17;8.70;;;5.67;;
6344;SDS011;3205;42.666;23.264;2023-04-03T08:49:48;13.83;;;6.03;;
6344;SDS011;3205;42.666;23.264;2023-04-03T08:52:17;12.77;;;5.67;;
6344;SDS011;3205;42.666;23.264;2023-04-03T08:54:48;12.87;;;6.63;;
6344;SDS011;3205;42.666;23.264;2023-04-03T08:57:18;18.87;;;7.53;;
6344;SDS011;3205;42.666;23.264;2023-04-03T08:59:58;45.17;;;22.30;;
6344;SDS011;3205;42.666;23.264;2023-04-03T09:02:29;12.37;;;8.23;;
6344;SDS011;3205;42.666;23.264;2023-04-03T09:04:58;21.17;;;8.53;;
6344;SDS011;3205;42.666;23.264;2023-04-03T09:07:28;21.00;;;9.47;;
6344;SDS011;3205;42.666;23.264;2023-04-03T09:10:03;12.93;;;8.87;;
6344;SDS011;3205;42.666;23.264;2023-04-03T09:12:32;16.17;;;8.73;;
6344;SDS011;3205;42.666;23.264;2023-04-03T09:15:05;14.20;;;9.60;;
6344;SDS011;3205;42.666;23.264;2023-04-03T09:17:42;21.60;;;10.93;;
6344;SDS011;3205;42.666;23.264;2023-04-03T09:20:19;22.83;;;10.77;;
6344;SDS011;3205;42.666;23.264;2023-04-03T09:22:49;27.23;;;13.53;;
6344;SDS011;3205;42.666;23.264;2023-04-03T09:25:20;27.33;;;12.43;;
6344;SDS011;3205;42.666;23.264;2023-04-03T09:27:47;25.80;;;11.43;;
6344;SDS011;3205;42.666;23.264;2023-04-03T09:30:14;15.97;;;10.13;;
6344;SDS011;3205;42.666;23.264;2023-04-03T09:32:44;19.47;;;9.97;;
6344;SDS011;3205;42.666;23.264;2023-04-03T09:35:16;16.03;;;8.87;;
6344;SDS011;3205;42.666;23.264;2023-04-03T09:37:46;23.93;;;9.73;;
6344;SDS011;3205;42.666;23.264;2023-04-03T09:40:28;20.13;;;7.63;;
6344;SDS011;3205;42.666;23.264;2023-04-03T09:43:00;10.27;;;5.93;;
6344;SDS011;3205;42.666;23.264;2023-04-03T09:45:29;17.13;;;8.20;;
6344;SDS011;3205;42.666;23.264;2023-04-03T09:48:04;20.20;;;6.90;;
6344;SDS011;3205;42.666;23.264;2023-04-03T09:50:32;9.70;;;6.73;;
6344;SDS011;3205;42.666;23.264;2023-04-03T09:53:01;5.27;;;3.60;;
6344;SDS011;3205;42.666;23.264;2023-04-03T09:55:32;7.63;;;3.47;;
6344;SDS011;3205;42.666;23.264;2023-04-03T09:58:21;8.97;;;4.33;;
6344;SDS011;3205;42.666;23.264;2023-04-03T10:00:53;14.47;;;3.90;;
6344;SDS011;3205;42.666;23.264;2023-04-03T10:03:23;8.63;;;4.00;;
6344;SDS011;3205;42.666;23.264;2023-04-03T10:05:51;9.97;;;2.77;;
6344;SDS011;3205;42.666;23.264;2023-04-03T10:08:20;9.07;;;3.70;;
6344;SDS011;3205;42.666;23.264;2023-04-03T10:11:06;4.07;;;2.23;;
6344;SDS011;3205;42.666;23.264;2023-04-03T10:13:49;4.10;;;2.77;;
6344;SDS011;3205;42.666;23.264;2023-04-03T10:16:17;2.47;;;1.63;;
6344;SDS011;3205;42.666;23.264;2023-04-03T10:18:46;8.07;;;3.47;;
6344;SDS011;3205;42.666;23.264;2023-04-03T10:21:24;4.67;;;1.90;;
6344;SDS011;3205;42.666;23.264;2023-04-03T10:24:01;6.23;;;2.27;;
6344;SDS011;3205;42.666;23.264;2023-04-03T10:26:36;10.57;;;4.20;;
6344;SDS011;3205;42.666;23.264;2023-04-03T10:29:13;4.33;;;3.00;;
6344;SDS011;3205;42.666;23.264;2023-04-03T10:31:49;6.77;;;2.20;;
6344;SDS011;3205;42.666;23.264;2023-04-03T10:34:22;3.10;;;2.80;;
6344;SDS011;3205;42.666;23.264;2023-04-03T10:36:54;8.70;;;2.43;;
6344;SDS011;3205;42.666;23.264;2023-04-03T10:39:27;3.60;;;1.93;;
6344;SDS011;3205;42.666;23.264;2023-04-03T10:42:03;6.73;;;2.83;;
6344;SDS011;3205;42.666;23.264;2023-04-03T10:44:36;4.43;;;2.60;;
6344;SDS011;3205;42.666;23.264;2023-04-03T10:47:14;5.73;;;2.13;;
6344;SDS011;3205;42.666;23.264;2023-04-03T10:49:48;2.93;;;2.30;;
6344;SDS011;3205;42.666;23.264;2023-04-03T10:52:22;3.77;;;1.93;;
6344;SDS011;3205;42.666;23.264;2023-04-03T10:54:56;2.60;;;2.00;;
6344;SDS011;3205;42.666;23.264;2023-04-03T10:57:33;2.47;;;2.20;;
6344;SDS011;3205;42.666;23.264;2023-04-03T11:00:01;2.90;;;2.30;;
6344;SDS011;3205;42.666;23.264;2023-04-03T11:02:30;5.37;;;2.33;;
6344;SDS011;3205;42.666;23.264;2023-04-03T11:04:59;4.90;;;2.07;;
6344;SDS011;3205;42.666;23.264;2023-04-03T11:07:32;6.37;;;2.30;;
6344;SDS011;3205;42.666;23.264;2023-04-03T11:10:03;2.97;;;1.93;;
6344;SDS011;3205;42.666;23.264;2023-04-03T11:12:41;2.30;;;2.10;;
6344;SDS011;3205;42.666;23.264;2023-04-03T11:15:11;1.90;;;1.53;;
6344;SDS011;3205;42.666;23.264;2023-04-03T11:17:41;1.87;;;1.77;;
6344;SDS011;3205;42.666;23.264;2023-04-03T11:20:16;7.77;;;2.50;;
6344;SDS011;3205;42.666;23.264;2023-04-03T11:22:47;4.67;;;3.23;;
6344;SDS011;3205;42.666;23.264;2023-04-03T11:25:18;4.77;;;2.20;;
6344;SDS011;3205;42.666;23.264;2023-04-03T11:27:49;3.93;;;2.47;;
6344;SDS011;3205;42.666;23.264;2023-04-03T11:30:19;4.83;;;3.30;;
6344;SDS011;3205;42.666;23.264;2023-04-03T11:33:05;6.30;;;2.77;;
6344;SDS011;3205;42.666;23.264;2023-04-03T11:35:57;5.40;;;3.70;;
6344;SDS011;3205;42.666;23.264;2023-04-03T11:38:26;7.23;;;3.63;;
6344;SDS011;3205;42.666;23.264;2023-04-03T11:40:56;8.43;;;3.90;;
6344;SDS011;3205;42.666;23.264;2023-04-03T11:43:25;3.20;;;2.87;;
6344;SDS011;3205;42.666;23.264;2023-04-03T11:45:55;7.00;;;3.70;;
6344;SDS011;3205;42.666;23.264;2023-04-03T11:54:36;5.73;;;4.37;;
6344;SDS011;3205;42.666;23.264;2023-04-03T12:03:34;12.90;;;4.17;;
6344;SDS011;3205;42.666;23.264;2023-04-03T12:09:22;7.33;;;3.33;;
6344;SDS011;3205;42.666;23.264;2023-04-03T12:11:51;3.13;;;2.77;;
6344;SDS011;3205;42.666;23.264;2023-04-03T12:14:18;3.73;;;3.40;;
6344;SDS011;3205;42.666;23.264;2023-04-03T12:16:48;3.77;;;3.20;;
6344;SDS011;3205;42.666;23.264;2023-04-03T12:19:30;4.47;;;2.53;;
6344;SDS011;3205;42.666;23.264;2023-04-03T12:22:08;4.33;;;3.67;;
6344;SDS011;3205;42.666;23.264;2023-04-03T12:24:39;3.07;;;2.80;;
6344;SDS011;3205;42.666;23.264;2023-04-03T12:30:12;5.33;;;3.90;;
6344;SDS011;3205;42.666;23.264;2023-04-03T12:32:56;5.07;;;3.67;;
6344;SDS011;3205;42.666;23.264;2023-04-03T12:35:36;4.83;;;4.27;;
6344;SDS011;3205;42.666;23.264;2023-04-03T12:41:11;12.60;;;6.47;;
6344;SDS011;3205;42.666;23.264;2023-04-03T12:43:48;5.43;;;4.87;;
6344;SDS011;3205;42.666;23.264;2023-04-03T12:46:35;6.70;;;5.90;;
6344;SDS011;3205;42.666;23.264;2023-04-03T12:49:12;7.67;;;6.37;;
6344;SDS011;3205;42.666;23.264;2023-04-03T12:51:48;7.77;;;5.77;;
6344;SDS011;3205;42.666;23.264;2023-04-03T12:54:15;8.63;;;6.50;;
6344;SDS011;3205;42.666;23.264;2023-04-03T12:56:44;6.33;;;5.50;;
6344;SDS011;3205;42.666;23.264;2023-04-03T12:59:14;7.83;;;6.73;;
6344;SDS011;3205;42.666;23.264;2023-04-03T13:01:41;8.57;;;6.23;;
6344;SDS011;3205;42.666;23.264;2023-04-03T13:04:09;9.00;;;7.20;;
6344;SDS011;3205;42.666;23.264;2023-04-03T13:06:37;9.30;;;6.67;;
6344;SDS011;3205;42.666;23.264;2023-04-03T13:09:06;8.87;;;7.97;;
6344;SDS011;3205;42.666;23.264;2023-04-03T13:11:44;12.93;;;8.23;;
6344;SDS011;3205;42.666;23.264;2023-04-03T13:14:14;10.40;;;7.47;;
6344;SDS011;3205;42.666;23.264;2023-04-03T13:16:42;9.13;;;7.30;;
6344;SDS011;3205;42.666;23.264;2023-04-03T13:19:19;5.83;;;4.30;;
6344;SDS011;3205;42.666;23.264;2023-04-03T13:21:45;8.03;;;5.90;;
6344;SDS011;3205;42.666;23.264;2023-04-03T13:24:12;7.23;;;5.57;;
6344;SDS011;3205;42.666;23.264;2023-04-03T13:26:38;11.10;;;7.43;;
6344;SDS011;3205;42.666;23.264;2023-04-03T13:29:05;14.03;;;7.30;;
6344;SDS011;3205;42.666;23.264;2023-04-03T13:31:43;8.60;;;7.30;;
6344;SDS011;3205;42.666;23.264;2023-04-03T13:34:10;11.37;;;8.43;;
6344;SDS011;3205;42.666;23.264;2023-04-03T13:36:40;12.20;;;7.33;;
6344;SDS011;3205;42.666;23.264;2023-04-03T13:39:21;5.03;;;4.13;;
6344;SDS011;3205;42.666;23.264;2023-04-03T13:41:50;13.43;;;8.20;;
6344;SDS011;3205;42.666;23.264;2023-04-03T13:44:22;14.67;;;7.23;;
6344;SDS011;3205;42.666;23.264;2023-04-03T13:46:57;10.17;;;7.60;;
6344;SDS011;3205;42.666;23.264;2023-04-03T13:49:28;10.57;;;8.00;;
6344;SDS011;3205;42.666;23.264;2023-04-03T13:51:59;9.73;;;7.83;;
6344;SDS011;3205;42.666;23.264;2023-04-03T13:54:29;11.17;;;7.10;;
6344;SDS011;3205;42.666;23.264;2023-04-03T13:56:58;7.73;;;5.70;;
6344;SDS011;3205;42.666;23.264;2023-04-03T13:59:27;10.37;;;8.37;;
6344;SDS011;3205;42.666;23.264;2023-04-03T14:01:56;8.63;;;6.80;;
6344;SDS011;3205;42.666;23.264;2023-04-03T14:04:45;10.70;;;7.57;;
6344;SDS011;3205;42.666;23.264;2023-04-03T14:07:15;12.33;;;8.77;;
6344;SDS011;3205;42.666;23.264;2023-04-03T14:09:43;9.00;;;6.23;;
6344;SDS011;3205;42.666;23.264;2023-04-03T14:12:12;16.93;;;8.97;;
6344;SDS011;3205;42.666;23.264;2023-04-03T14:14:41;4.27;;;3.60;;
6344;SDS011;3205;42.666;23.264;2023-04-03T14:17:10;8.33;;;6.23;;
6344;SDS011;3205;42.666;23.264;2023-04-03T14:19:40;6.97;;;5.03;;
6344;SDS011;3205;42.666;23.264;2023-04-03T14:22:10;7.70;;;5.03;;
6344;SDS011;3205;42.666;23.264;2023-04-03T14:24:41;5.00;;;3.97;;
6344;SDS011;3205;42.666;23.264;2023-04-03T14:27:11;6.60;;;3.47;;
6344;SDS011;3205;42.666;23.264;2023-04-03T14:29:41;3.47;;;3.17;;
6344;SDS011;3205;42.666;23.264;2023-04-03T14:32:09;3.57;;;3.07;;
6344;SDS011;3205;42.666;23.264;2023-04-03T14:34:37;8.27;;;5.50;;
6344;SDS011;3205;42.666;23.264;2023-04-03T14:37:04;5.27;;;4.77;;
6344;SDS011;3205;42.666;23.264;2023-04-03T14:39:30;6.00;;;4.53;;
6344;SDS011;3205;42.666;23.264;2023-04-03T14:41:57;6.87;;;5.13;;
6344;SDS011;3205;42.666;23.264;2023-04-03T14:44:23;6.03;;;4.60;;
6344;SDS011;3205;42.666;23.264;2023-04-03T14:46:49;4.90;;;3.90;;
6344;SDS011;3205;42.666;23.264;2023-04-03T14:49:17;7.60;;;4.37;;
6344;SDS011;3205;42.666;23.264;2023-04-03T14:51:46;4.33;;;2.97;;
6344;SDS011;3205;42.666;23.264;2023-04-03T14:54:13;4.67;;;4.27;;
6344;SDS011;3205;42.666;23.264;2023-04-03T14:56:41;5.90;;;4.77;;
6344;SDS011;3205;42.666;23.264;2023-04-03T14:59:11;4.73;;;4.23;;
6344;SDS011;3205;42.666;23.264;2023-04-03T15:01:38;3.70;;;3.30;;
6344;SDS011;3205;42.666;23.264;2023-04-03T15:04:05;5.90;;;4.80;;
6344;SDS011;3205;42.666;23.264;2023-04-03T15:06:35;5.07;;;4.37;;
6344;SDS011;3205;42.666;23.264;2023-04-03T15:09:02;5.23;;;2.97;;
6344;SDS011;3205;42.666;23.264;2023-04-03T15:11:28;6.20;;;4.37;;
6344;SDS011;3205;42.666;23.264;2023-04-03T15:13:54;4.73;;;3.37;;
6344;SDS011;3205;42.666;23.264;2023-04-03T15:16:28;2.73;;;2.53;;
6344;SDS011;3205;42.666;23.264;2023-04-03T15:18:55;5.53;;;4.23;;
6344;SDS011;3205;42.666;23.264;2023-04-03T15:21:21;4.30;;;3.73;;
6344;SDS011;3205;42.666;23.264;2023-04-03T15:23:47;3.60;;;3.27;;
6344;SDS011;3205;42.666;23.264;2023-04-03T15:26:13;4.03;;;3.60;;